Bridgewater, NJ (08807)

11:17 AM EST on December 08, 2016 (GMT -0500)
Alexis Court | | Change Station

Elev 154 ft 40.59 °N, 74.66 °W | Updated 4 seconds ago

Overcast
Overcast
41.5 °F
Feels Like 42 °F
N
0.0
Wind Variable Wind from WSW
Gusts 0.0 mph

Today
High -- | Low -- °F
--% Chance of Precip.
Yesterday
High -- | Low -- °F
Precip. -- in
Pressure 29.96 in
Visibility 10.0 miles
Clouds Overcast 10000 ft
Windchill 42 °F
Dew Point 25 °F
Humidity 52%
Rainfall 0.00 in
Snow Depth Not available.
7:09 AM 4:31 PM
Waxing Gibbous, 64% visible
METAR KSMQ 081553Z AUTO 22003KT 10SM OVC100 05/M02 A2995 RMK AO2 SLP145 T00501022
Pressure 29.96 in
Visibility 10.0 miles
Clouds Overcast 10000 ft
Windchill 42 °F
Dew Point 25 °F
Humidity 52%
Rainfall 0.00 in
Snow Depth Not available.
7:09 AM 4:31 PM
Waxing Gibbous, 64% visible
METAR KSMQ 081553Z AUTO 22003KT 10SM OVC100 05/M02 A2995 RMK AO2 SLP145 T00501022

10-Day Weather Forecast

Almanac

Astronomy

Dec. 08, 2016 Rise Set
Actual Time
Civil Twilight
Nautical Twilight
Astronomical Twilight
Moon
Length of Visible Light
Length of Day
Tomorrow will be .
, % of the Moon is Illuminated

Today's Extremes

State Highs State Lows

Community

WunderPhotos

Upload Photos

1,956,274 photos uploaded!

WunderBlog® & News

Nearby

Air Quality

  Air Quality AQ Index Pollutant
Not available.

Snow Depth

Station Depth Elevation

Earthquake Activity

City Distance Mag. Time & Date
Minimum magnitude displayed is 2.5.

Coastal Water Temperatures

Place Temperature

Stations

Nearby Weather Stations

Station Location Temp. Windchill Dew Point Humidity Wind Precip. Elev Updated Type
                   

Watches & Warnings

There are currently no watches in effect.